sensor_id;sensor_type;location;lat;lon;timestamp;pressure;altitude;pressure_sealevel;temperature
15701;BMP180;7950;42.744;23.174;2022-07-19T00:00:43;95061.38;;;15.18
15701;BMP180;7950;42.744;23.174;2022-07-19T00:03:14;95056.59;;;15.15
15701;BMP180;7950;42.744;23.174;2022-07-19T00:05:44;95056.59;;;15.20
15701;BMP180;7950;42.744;23.174;2022-07-19T00:08:16;95054.47;;;15.12
15701;BMP180;7950;42.744;23.174;2022-07-19T00:10:45;95052.38;;;15.04
15701;BMP180;7950;42.744;23.174;2022-07-19T00:13:20;95054.22;;;15.19
15701;BMP180;7950;42.744;23.174;2022-07-19T00:15:50;95050.25;;;15.21
15701;BMP180;7950;42.744;23.174;2022-07-19T00:18:20;95052.38;;;15.14
15701;BMP180;7950;42.744;23.174;2022-07-19T00:20:49;95048.69;;;15.15
15701;BMP180;7950;42.744;23.174;2022-07-19T00:23:19;95060.31;;;15.14
15701;BMP180;7950;42.744;23.174;2022-07-19T00:25:48;95060.28;;;15.04
15701;BMP180;7950;42.744;23.174;2022-07-19T00:28:16;95055.50;;;14.86
15701;BMP180;7950;42.744;23.174;2022-07-19T00:30:45;95057.09;;;14.87
15701;BMP180;7950;42.744;23.174;2022-07-19T00:33:46;95068.72;;;14.91
15701;BMP180;7950;42.744;23.174;2022-07-19T00:36:15;95061.06;;;14.90
15701;BMP180;7950;42.744;23.174;2022-07-19T00:38:46;95056.78;;;14.79
15701;BMP180;7950;42.744;23.174;2022-07-19T00:41:15;95058.38;;;14.80
15701;BMP180;7950;42.744;23.174;2022-07-19T00:43:44;95069.22;;;14.88
15701;BMP180;7950;42.744;23.174;2022-07-19T00:46:13;95060.00;;;14.96
15701;BMP180;7950;42.744;23.174;2022-07-19T00:48:42;95061.31;;;14.88
15701;BMP180;7950;42.744;23.174;2022-07-19T00:51:13;95062.38;;;14.87
15701;BMP180;7950;42.744;23.174;2022-07-19T00:53:43;95058.91;;;14.77
15701;BMP180;7950;42.744;23.174;2022-07-19T00:56:15;95058.59;;;14.68
15701;BMP180;7950;42.744;23.174;2022-07-19T00:58:46;95057.56;;;14.74
15701;BMP180;7950;42.744;23.174;2022-07-19T01:01:15;95054.94;;;14.69
15701;BMP180;7950;42.744;23.174;2022-07-19T01:03:45;95052.25;;;14.64
15701;BMP180;7950;42.744;23.174;2022-07-19T01:06:14;95048.81;;;14.59
15701;BMP180;7950;42.744;23.174;2022-07-19T01:08:43;95050.72;;;14.73
15701;BMP180;7950;42.744;23.174;2022-07-19T01:11:13;95046.66;;;14.51
15701;BMP180;7950;42.744;23.174;2022-07-19T01:14:07;95057.56;;;14.69
15701;BMP180;7950;42.744;23.174;2022-07-19T01:16:35;95056.50;;;14.70
15701;BMP180;7950;42.744;23.174;2022-07-19T01:19:06;95049.81;;;14.53
15701;BMP180;7950;42.744;23.174;2022-07-19T01:21:36;95049.06;;;14.52
15701;BMP180;7950;42.744;23.174;2022-07-19T01:24:06;95054.56;;;14.46
15701;BMP180;7950;42.744;23.174;2022-07-19T01:26:34;95050.09;;;14.51
15701;BMP180;7950;42.744;23.174;2022-07-19T01:29:03;95047.13;;;14.33
15701;BMP180;7950;42.744;23.174;2022-07-19T01:31:32;95048.94;;;14.27
15701;BMP180;7950;42.744;23.174;2022-07-19T01:34:01;95047.13;;;14.33
15701;BMP180;7950;42.744;23.174;2022-07-19T01:36:31;95059.47;;;14.22
15701;BMP180;7950;42.744;23.174;2022-07-19T01:39:01;95042.38;;;14.35
15701;BMP180;7950;42.744;23.174;2022-07-19T01:41:30;95050.41;;;14.08
15701;BMP180;7950;42.744;23.174;2022-07-19T01:43:59;95048.72;;;13.92
15701;BMP180;7950;42.744;23.174;2022-07-19T01:46:28;95037.38;;;13.92
15701;BMP180;7950;42.744;23.174;2022-07-19T01:48:56;95048.47;;;13.99
15701;BMP180;7950;42.744;23.174;2022-07-19T01:51:25;95045.66;;;14.10
15701;BMP180;7950;42.744;23.174;2022-07-19T01:53:54;95049.34;;;14.09
15701;BMP180;7950;42.744;23.174;2022-07-19T01:56:24;95046.94;;;14.08
15701;BMP180;7950;42.744;23.174;2022-07-19T01:58:52;95047.78;;;14.13
15701;BMP180;7950;42.744;23.174;2022-07-19T02:01:21;95049.91;;;14.11
15701;BMP180;7950;42.744;23.174;2022-07-19T02:03:50;95052.78;;;14.10
15701;BMP180;7950;42.744;23.174;2022-07-19T02:06:37;95046.44;;;14.11
15701;BMP180;7950;42.744;23.174;2022-07-19T02:09:05;95040.13;;;14.17
15701;BMP180;7950;42.744;23.174;2022-07-19T02:11:36;95047.78;;;14.13
15701;BMP180;7950;42.744;23.174;2022-07-19T02:14:07;95049.38;;;14.14
15701;BMP180;7950;42.744;23.174;2022-07-19T02:16:37;95051.44;;;14.07
15701;BMP180;7950;42.744;23.174;2022-07-19T02:19:07;95056.50;;;14.14
15701;BMP180;7950;42.744;23.174;2022-07-19T02:21:37;95047.38;;;14.31
15701;BMP180;7950;42.744;23.174;2022-07-19T02:24:07;95054.94;;;14.18
15701;BMP180;7950;42.744;23.174;2022-07-19T02:26:37;95058.34;;;14.13
15701;BMP180;7950;42.744;23.174;2022-07-19T02:29:06;95062.97;;;13.96
15701;BMP180;7950;42.744;23.174;2022-07-19T02:31:35;95062.72;;;13.98
15701;BMP180;7950;42.744;23.174;2022-07-19T02:34:04;95068.88;;;14.08
15701;BMP180;7950;42.744;23.174;2022-07-19T02:36:33;95063.19;;;13.90
15701;BMP180;7950;42.744;23.174;2022-07-19T02:39:02;95068.16;;;13.81
15701;BMP180;7950;42.744;23.174;2022-07-19T02:41:30;95068.13;;;13.76
15701;BMP180;7950;42.744;23.174;2022-07-19T02:44:01;95069.47;;;13.79
15701;BMP180;7950;42.744;23.174;2022-07-19T02:46:29;95061.66;;;13.94
15701;BMP180;7950;42.744;23.174;2022-07-19T02:48:58;95079.22;;;13.78
15701;BMP180;7950;42.744;23.174;2022-07-19T02:51:27;95075.06;;;13.87
15701;BMP180;7950;42.744;23.174;2022-07-19T02:53:55;95075.03;;;13.82
15701;BMP180;7950;42.744;23.174;2022-07-19T02:56:24;95076.63;;;13.88
15701;BMP180;7950;42.744;23.174;2022-07-19T02:58:52;95076.72;;;13.98
15701;BMP180;7950;42.744;23.174;2022-07-19T03:01:22;95079.91;;;14.05
15701;BMP180;7950;42.744;23.174;2022-07-19T03:03:51;95089.84;;;13.93
15701;BMP180;7950;42.744;23.174;2022-07-19T03:06:20;95088.50;;;13.86
15701;BMP180;7950;42.744;23.174;2022-07-19T03:08:48;95087.75;;;13.90
15701;BMP180;7950;42.744;23.174;2022-07-19T03:11:17;95081.34;;;13.81
15701;BMP180;7950;42.744;23.174;2022-07-19T03:13:45;95083.56;;;13.94
15701;BMP180;7950;42.744;23.174;2022-07-19T03:16:14;95089.09;;;13.93
15701;BMP180;7950;42.744;23.174;2022-07-19T03:18:45;95089.94;;;14.03
15701;BMP180;7950;42.744;23.174;2022-07-19T03:21:13;95087.75;;;13.90
15701;BMP180;7950;42.744;23.174;2022-07-19T03:23:42;95086.91;;;13.85
15701;BMP180;7950;42.744;23.174;2022-07-19T03:26:11;95089.28;;;13.81
15701;BMP180;7950;42.744;23.174;2022-07-19T03:28:39;95087.16;;;13.83
15701;BMP180;7950;42.744;23.174;2022-07-19T03:31:08;95092.50;;;13.93
15701;BMP180;7950;42.744;23.174;2022-07-19T03:33:37;95097.09;;;14.08
15701;BMP180;7950;42.744;23.174;2022-07-19T03:36:07;95101.88;;;14.16
15701;BMP180;7950;42.744;23.174;2022-07-19T03:38:35;95102.16;;;14.19
15701;BMP180;7950;42.744;23.174;2022-07-19T03:41:04;95106.00;;;14.38
15701;BMP180;7950;42.744;23.174;2022-07-19T03:43:33;95106.03;;;14.43
15701;BMP180;7950;42.744;23.174;2022-07-19T03:46:01;95113.38;;;14.36
15701;BMP180;7950;42.744;23.174;2022-07-19T03:48:30;95101.84;;;14.47
15701;BMP180;7950;42.744;23.174;2022-07-19T03:50:58;95101.28;;;14.45
15701;BMP180;7950;42.744;23.174;2022-07-19T03:53:28;95100.28;;;14.51
15701;BMP180;7950;42.744;23.174;2022-07-19T03:55:57;95114.03;;;14.63
15701;BMP180;7950;42.744;23.174;2022-07-19T03:58:25;95110.06;;;14.61
15701;BMP180;7950;42.744;23.174;2022-07-19T04:00:54;95123.06;;;14.72
15701;BMP180;7950;42.744;23.174;2022-07-19T04:03:23;95116.53;;;14.90
15701;BMP180;7950;42.744;23.174;2022-07-19T04:05:52;95121.09;;;15.14
15701;BMP180;7950;42.744;23.174;2022-07-19T04:08:21;95122.94;;;15.19
15701;BMP180;7950;42.744;23.174;2022-07-19T04:10:51;95123.53;;;15.36
15701;BMP180;7950;42.744;23.174;2022-07-19T04:13:19;95115.91;;;15.44
15701;BMP180;7950;42.744;23.174;2022-07-19T04:15:48;95121.75;;;15.61
15701;BMP180;7950;42.744;23.174;2022-07-19T04:18:17;95115.38;;;15.77
15701;BMP180;7950;42.744;23.174;2022-07-19T04:20:46;95112.72;;;15.87
15701;BMP180;7950;42.744;23.174;2022-07-19T04:23:15;95115.34;;;16.12
15701;BMP180;7950;42.744;23.174;2022-07-19T04:25:43;95118.25;;;16.11
15701;BMP180;7950;42.744;23.174;2022-07-19T04:28:14;95119.31;;;16.30
15701;BMP180;7950;42.744;23.174;2022-07-19T04:30:42;95112.94;;;16.46
15701;BMP180;7950;42.744;23.174;2022-07-19T04:33:21;95116.59;;;16.65
15701;BMP180;7950;42.744;23.174;2022-07-19T04:35:50;95119.44;;;16.84
15701;BMP180;7950;42.744;23.174;2022-07-19T04:38:21;95122.56;;;16.96
15701;BMP180;7950;42.744;23.174;2022-07-19T04:40:50;95122.25;;;17.07
15701;BMP180;7950;42.744;23.174;2022-07-19T04:43:27;95127.72;;;17.26
15701;BMP180;7950;42.744;23.174;2022-07-19T04:45:56;95131.13;;;17.41
15701;BMP180;7950;42.744;23.174;2022-07-19T04:48:28;95128.34;;;17.56
15701;BMP180;7950;42.744;23.174;2022-07-19T04:50:57;95123.19;;;17.75
15701;BMP180;7950;42.744;23.174;2022-07-19T04:53:26;95125.16;;;17.93
15701;BMP180;7950;42.744;23.174;2022-07-19T04:55:59;95128.72;;;18.12
15701;BMP180;7950;42.744;23.174;2022-07-19T04:58:29;95120.66;;;18.22
15701;BMP180;7950;42.744;23.174;2022-07-19T05:00:58;95122.22;;;18.28
15701;BMP180;7950;42.744;23.174;2022-07-19T05:03:26;95126.38;;;18.39
15701;BMP180;7950;42.744;23.174;2022-07-19T05:05:55;95123.00;;;18.57
15701;BMP180;7950;42.744;23.174;2022-07-19T05:08:24;95121.97;;;18.76
15701;BMP180;7950;42.744;23.174;2022-07-19T05:10:53;95124.13;;;18.98
15701;BMP180;7950;42.744;23.174;2022-07-19T05:13:23;95114.38;;;19.12
15701;BMP180;7950;42.744;23.174;2022-07-19T05:15:53;95115.94;;;19.13
15701;BMP180;7950;42.744;23.174;2022-07-19T05:18:47;95115.84;;;19.23
15701;BMP180;7950;42.744;23.174;2022-07-19T05:21:16;95114.13;;;19.32
15701;BMP180;7950;42.744;23.174;2022-07-19T05:23:44;95118.72;;;19.45
15701;BMP180;7950;42.744;23.174;2022-07-19T05:26:16;95119.25;;;19.47
15701;BMP180;7950;42.744;23.174;2022-07-19T05:28:45;95117.53;;;19.56
15701;BMP180;7950;42.744;23.174;2022-07-19T05:31:15;95121.13;;;19.65
15701;BMP180;7950;42.744;23.174;2022-07-19T05:33:44;95111.75;;;19.86
15701;BMP180;7950;42.744;23.174;2022-07-19T05:36:13;95123.22;;;20.00
15701;BMP180;7950;42.744;23.174;2022-07-19T05:38:41;95115.91;;;20.24
15701;BMP180;7950;42.744;23.174;2022-07-19T05:41:10;95124.06;;;20.46
15701;BMP180;7950;42.744;23.174;2022-07-19T05:43:40;95127.81;;;20.45
15701;BMP180;7950;42.744;23.174;2022-07-19T05:46:08;95113.88;;;20.34
15701;BMP180;7950;42.744;23.174;2022-07-19T05:48:38;95119.25;;;20.48
15701;BMP180;7950;42.744;23.174;2022-07-19T05:51:07;95115.19;;;20.50
15701;BMP180;7950;42.744;23.174;2022-07-19T05:53:36;95118.53;;;20.56
15701;BMP180;7950;42.744;23.174;2022-07-19T05:56:20;95114.03;;;20.70
15701;BMP180;7950;42.744;23.174;2022-07-19T05:58:49;95111.50;;;20.92
15701;BMP180;7950;42.744;23.174;2022-07-19T06:01:18;95107.44;;;20.94
15701;BMP180;7950;42.744;23.174;2022-07-19T06:03:51;95119.00;;;21.03
15701;BMP180;7950;42.744;23.174;2022-07-19T06:06:27;95102.47;;;21.15
15701;BMP180;7950;42.744;23.174;2022-07-19T06:08:56;95109.66;;;21.28
15701;BMP180;7950;42.744;23.174;2022-07-19T06:11:26;95114.19;;;21.27
15701;BMP180;7950;42.744;23.174;2022-07-19T06:13:55;95113.09;;;21.42
15701;BMP180;7950;42.744;23.174;2022-07-19T06:16:25;95108.81;;;21.54
15701;BMP180;7950;42.744;23.174;2022-07-19T06:18:55;95107.00;;;21.63
15701;BMP180;7950;42.744;23.174;2022-07-19T06:21:24;95118.66;;;21.67
15701;BMP180;7950;42.744;23.174;2022-07-19T06:23:53;95116.28;;;21.66
15701;BMP180;7950;42.744;23.174;2022-07-19T06:26:22;95112.53;;;21.67
15701;BMP180;7950;42.744;23.174;2022-07-19T06:28:52;95114.69;;;21.78
15701;BMP180;7950;42.744;23.174;2022-07-19T06:31:22;95099.44;;;21.79
15701;BMP180;7950;42.744;23.174;2022-07-19T06:33:51;95108.69;;;21.95
15701;BMP180;7950;42.744;23.174;2022-07-19T06:36:21;95104.31;;;21.99
15701;BMP180;7950;42.744;23.174;2022-07-19T06:39:15;95106.69;;;22.00
15701;BMP180;7950;42.744;23.174;2022-07-19T06:41:44;95096.78;;;22.01
15701;BMP180;7950;42.744;23.174;2022-07-19T06:44:13;95100.84;;;22.20
15701;BMP180;7950;42.744;23.174;2022-07-19T06:46:42;95111.28;;;22.30
15701;BMP180;7950;42.744;23.174;2022-07-19T06:49:20;95101.50;;;22.48
15701;BMP180;7950;42.744;23.174;2022-07-19T06:51:50;95096.50;;;22.55
15701;BMP180;7950;42.744;23.174;2022-07-19T06:54:18;95097.63;;;22.62
15701;BMP180;7950;42.744;23.174;2022-07-19T06:56:47;95091.88;;;22.77
15701;BMP180;7950;42.744;23.174;2022-07-19T06:59:15;95089.41;;;22.98
15701;BMP180;7950;42.744;23.174;2022-07-19T07:01:44;95087.53;;;23.07
15701;BMP180;7950;42.744;23.174;2022-07-19T07:04:13;95096.22;;;23.04
15701;BMP180;7950;42.744;23.174;2022-07-19T07:06:41;95096.72;;;23.14
15701;BMP180;7950;42.744;23.174;2022-07-19T07:09:11;95087.50;;;23.38
15701;BMP180;7950;42.744;23.174;2022-07-19T07:11:40;95093.47;;;23.43
15701;BMP180;7950;42.744;23.174;2022-07-19T07:14:08;95094.94;;;23.66
15701;BMP180;7950;42.744;23.174;2022-07-19T07:16:37;95090.19;;;23.80
15701;BMP180;7950;42.744;23.174;2022-07-19T07:19:06;95086.41;;;23.98
15701;BMP180;7950;42.744;23.174;2022-07-19T07:21:35;95087.34;;;24.11
15701;BMP180;7950;42.744;23.174;2022-07-19T07:24:05;95081.66;;;24.12
15701;BMP180;7950;42.744;23.174;2022-07-19T07:26:35;95084.84;;;23.97
15701;BMP180;7950;42.744;23.174;2022-07-19T07:29:04;95086.56;;;24.02
15701;BMP180;7950;42.744;23.174;2022-07-19T07:31:33;95080.25;;;23.98
15701;BMP180;7950;42.744;23.174;2022-07-19T07:34:04;95078.22;;;24.12
15701;BMP180;7950;42.744;23.174;2022-07-19T07:36:57;95078.91;;;24.38
15701;BMP180;7950;42.744;23.174;2022-07-19T07:39:26;95074.47;;;24.50
15701;BMP180;7950;42.744;23.174;2022-07-19T07:41:56;95074.59;;;24.62
15701;BMP180;7950;42.744;23.174;2022-07-19T07:44:38;95072.41;;;24.64
15701;BMP180;7950;42.744;23.174;2022-07-19T07:47:31;95070.78;;;24.72
15701;BMP180;7950;42.744;23.174;2022-07-19T07:50:00;95068.72;;;24.77
15701;BMP180;7950;42.744;23.174;2022-07-19T07:52:28;95070.00;;;24.71
15701;BMP180;7950;42.744;23.174;2022-07-19T07:54:57;95065.41;;;24.80
15701;BMP180;7950;42.744;23.174;2022-07-19T07:57:47;95061.88;;;24.88
15701;BMP180;7950;42.744;23.174;2022-07-19T08:00:15;95067.94;;;24.77
15701;BMP180;7950;42.744;23.174;2022-07-19T08:02:46;95063.22;;;24.74
15701;BMP180;7950;42.744;23.174;2022-07-19T08:05:20;95055.56;;;24.84
15701;BMP180;7950;42.744;23.174;2022-07-19T08:07:50;95051.53;;;25.07
15701;BMP180;7950;42.744;23.174;2022-07-19T08:10:21;95059.84;;;25.14
15701;BMP180;7950;42.744;23.174;2022-07-19T08:12:52;95054.06;;;25.04
15701;BMP180;7950;42.744;23.174;2022-07-19T08:15:21;95055.78;;;25.08
15701;BMP180;7950;42.744;23.174;2022-07-19T08:17:50;95057.63;;;25.16
15701;BMP180;7950;42.744;23.174;2022-07-19T08:20:19;95055.69;;;25.25
15701;BMP180;7950;42.744;23.174;2022-07-19T08:22:47;95054.25;;;25.28
15701;BMP180;7950;42.744;23.174;2022-07-19T08:25:16;95047.81;;;25.20
15701;BMP180;7950;42.744;23.174;2022-07-19T08:27:45;95052.69;;;25.18
15701;BMP180;7950;42.744;23.174;2022-07-19T08:30:15;95050.31;;;25.25
15701;BMP180;7950;42.744;23.174;2022-07-19T08:32:44;95046.81;;;25.33
15701;BMP180;7950;42.744;23.174;2022-07-19T08:35:13;95051.47;;;25.16
15701;BMP180;7950;42.744;23.174;2022-07-19T08:37:41;95043.66;;;25.02
15701;BMP180;7950;42.744;23.174;2022-07-19T08:40:37;95041.78;;;25.23
15701;BMP180;7950;42.744;23.174;2022-07-19T08:43:09;95044.84;;;25.42
15701;BMP180;7950;42.744;23.174;2022-07-19T08:45:40;95048.06;;;25.56
15701;BMP180;7950;42.744;23.174;2022-07-19T08:48:10;95045.75;;;25.67
15701;BMP180;7950;42.744;23.174;2022-07-19T08:50:40;95037.59;;;25.75
15701;BMP180;7950;42.744;23.174;2022-07-19T08:53:09;95029.75;;;25.70
15701;BMP180;7950;42.744;23.174;2022-07-19T08:55:38;95032.28;;;25.87
15701;BMP180;7950;42.744;23.174;2022-07-19T08:58:07;95033.41;;;26.07
15701;BMP180;7950;42.744;23.174;2022-07-19T09:00:35;95031.25;;;26.12
15701;BMP180;7950;42.744;23.174;2022-07-19T09:03:07;95031.34;;;26.04
15701;BMP180;7950;42.744;23.174;2022-07-19T09:05:36;95030.84;;;25.90
15701;BMP180;7950;42.744;23.174;2022-07-19T09:08:09;95027.81;;;25.91
15701;BMP180;7950;42.744;23.174;2022-07-19T09:10:42;95026.63;;;26.01
15701;BMP180;7950;42.744;23.174;2022-07-19T09:13:14;95027.13;;;25.82
15701;BMP180;7950;42.744;23.174;2022-07-19T09:15:46;95022.50;;;26.03
15701;BMP180;7950;42.744;23.174;2022-07-19T09:18:22;95034.53;;;26.18
15701;BMP180;7950;42.744;23.174;2022-07-19T09:20:53;95012.69;;;26.19
15701;BMP180;7950;42.744;23.174;2022-07-19T09:23:23;95018.09;;;26.31
15701;BMP180;7950;42.744;23.174;2022-07-19T09:25:54;95022.81;;;26.46
15701;BMP180;7950;42.744;23.174;2022-07-19T09:28:27;95026.28;;;26.35
15701;BMP180;7950;42.744;23.174;2022-07-19T09:30:58;95011.44;;;26.17
15701;BMP180;7950;42.744;23.174;2022-07-19T09:33:31;95014.25;;;26.08
15701;BMP180;7950;42.744;23.174;2022-07-19T09:36:03;95015.13;;;26.12
15701;BMP180;7950;42.744;23.174;2022-07-19T09:38:34;95013.56;;;26.11
15701;BMP180;7950;42.744;23.174;2022-07-19T09:41:13;95012.41;;;26.33
15701;BMP180;7950;42.744;23.174;2022-07-19T09:43:54;95016.78;;;26.49
15701;BMP180;7950;42.744;23.174;2022-07-19T09:46:32;95002.03;;;26.79
15701;BMP180;7950;42.744;23.174;2022-07-19T09:49:08;95004.59;;;27.00
15701;BMP180;7950;42.744;23.174;2022-07-19T09:51:39;94998.41;;;26.99
15701;BMP180;7950;42.744;23.174;2022-07-19T09:54:11;95005.06;;;26.78
15701;BMP180;7950;42.744;23.174;2022-07-19T09:56:42;94996.19;;;26.89
15701;BMP180;7950;42.744;23.174;2022-07-19T09:59:12;95000.44;;;27.02
15701;BMP180;7950;42.744;23.174;2022-07-19T10:01:42;94998.63;;;26.94
15701;BMP180;7950;42.744;23.174;2022-07-19T10:04:15;94994.16;;;26.98
15701;BMP180;7950;42.744;23.174;2022-07-19T10:06:46;94989.44;;;27.19
15701;BMP180;7950;42.744;23.174;2022-07-19T10:09:17;94983.78;;;27.36
15701;BMP180;7950;42.744;23.174;2022-07-19T10:11:55;94986.59;;;27.28
15701;BMP180;7950;42.744;23.174;2022-07-19T10:14:24;94984.81;;;27.20
15701;BMP180;7950;42.744;23.174;2022-07-19T10:17:05;94986.41;;;26.97
15701;BMP180;7950;42.744;23.174;2022-07-19T10:19:42;94985.06;;;26.91
15701;BMP180;7950;42.744;23.174;2022-07-19T10:22:14;94984.94;;;26.99
15701;BMP180;7950;42.744;23.174;2022-07-19T10:24:57;94971.06;;;26.73
15701;BMP180;7950;42.744;23.174;2022-07-19T10:27:52;94991.00;;;27.08
15701;BMP180;7950;42.744;23.174;2022-07-19T10:30:39;94976.19;;;26.90
15701;BMP180;7950;42.744;23.174;2022-07-19T10:33:29;94971.25;;;27.04
15701;BMP180;7950;42.744;23.174;2022-07-19T10:36:36;94970.53;;;27.31
15701;BMP180;7950;42.744;23.174;2022-07-19T10:39:29;94965.97;;;27.20
15701;BMP180;7950;42.744;23.174;2022-07-19T10:42:17;94964.88;;;27.48
15701;BMP180;7950;42.744;23.174;2022-07-19T10:45:14;94963.44;;;27.66
15701;BMP180;7950;42.744;23.174;2022-07-19T10:48:00;94965.03;;;27.67
15701;BMP180;7950;42.744;23.174;2022-07-19T10:50:45;94963.69;;;27.61
15701;BMP180;7950;42.744;23.174;2022-07-19T10:56:58;94948.41;;;27.38
15701;BMP180;7950;42.744;23.174;2022-07-19T10:59:39;94951.38;;;27.48
15701;BMP180;7950;42.744;23.174;2022-07-19T11:02:23;94940.09;;;27.43
15701;BMP180;7950;42.744;23.174;2022-07-19T11:05:33;94945.72;;;27.65
15701;BMP180;7950;42.744;23.174;2022-07-19T11:08:01;94953.16;;;27.56
15701;BMP180;7950;42.744;23.174;2022-07-19T11:10:30;94940.94;;;27.47
15701;BMP180;7950;42.744;23.174;2022-07-19T11:13:00;94938.22;;;27.59
15701;BMP180;7950;42.744;23.174;2022-07-19T11:15:29;94935.13;;;27.72
15701;BMP180;7950;42.744;23.174;2022-07-19T11:18:07;94943.81;;;27.66
15701;BMP180;7950;42.744;23.174;2022-07-19T11:20:36;94933.97;;;27.58
15701;BMP180;7950;42.744;23.174;2022-07-19T11:23:05;94933.50;;;27.56
15701;BMP180;7950;42.744;23.174;2022-07-19T11:25:37;94932.56;;;27.64
15701;BMP180;7950;42.744;23.174;2022-07-19T11:28:20;94928.00;;;27.80
15701;BMP180;7950;42.744;23.174;2022-07-19T11:30:49;94935.97;;;27.61
15701;BMP180;7950;42.744;23.174;2022-07-19T11:33:32;94932.78;;;27.43
15701;BMP180;7950;42.744;23.174;2022-07-19T11:36:01;94933.31;;;27.76
15701;BMP180;7950;42.744;23.174;2022-07-19T11:38:39;94923.53;;;27.99
15701;BMP180;7950;42.744;23.174;2022-07-19T11:41:13;94919.38;;;28.17
15701;BMP180;7950;42.744;23.174;2022-07-19T11:43:44;94910.81;;;28.31
15701;BMP180;7950;42.744;23.174;2022-07-19T11:46:20;94916.81;;;27.93
15701;BMP180;7950;42.744;23.174;2022-07-19T11:48:55;94915.97;;;27.89
15701;BMP180;7950;42.744;23.174;2022-07-19T11:51:24;94914.94;;;28.09
15701;BMP180;7950;42.744;23.174;2022-07-19T11:53:55;94908.91;;;28.00
15701;BMP180;7950;42.744;23.174;2022-07-19T11:56:26;94911.63;;;28.00
15701;BMP180;7950;42.744;23.174;2022-07-19T11:58:59;94914.56;;;27.95
15701;BMP180;7950;42.744;23.174;2022-07-19T12:01:30;94906.88;;;27.82
15701;BMP180;7950;42.744;23.174;2022-07-19T12:04:02;94909.19;;;27.95
15701;BMP180;7950;42.744;23.174;2022-07-19T12:06:37;94913.19;;;28.01
15701;BMP180;7950;42.744;23.174;2022-07-19T12:09:09;94901.50;;;28.28
15701;BMP180;7950;42.744;23.174;2022-07-19T12:11:41;94900.13;;;28.34
15701;BMP180;7950;42.744;23.174;2022-07-19T12:14:41;94889.75;;;28.36
15701;BMP180;7950;42.744;23.174;2022-07-19T12:17:13;94898.59;;;28.49
15701;BMP180;7950;42.744;23.174;2022-07-19T12:19:46;94895.69;;;28.57
15701;BMP180;7950;42.744;23.174;2022-07-19T12:22:33;94902.03;;;28.34
15701;BMP180;7950;42.744;23.174;2022-07-19T12:25:04;94898.22;;;28.04
15701;BMP180;7950;42.744;23.174;2022-07-19T12:27:33;94894.84;;;27.79
15701;BMP180;7950;42.744;23.174;2022-07-19T12:30:05;94904.19;;;27.39
15701;BMP180;7950;42.744;23.174;2022-07-19T12:32:36;94895.09;;;27.31
15701;BMP180;7950;42.744;23.174;2022-07-19T12:35:07;94889.16;;;27.53
15701;BMP180;7950;42.744;23.174;2022-07-19T12:37:40;94890.38;;;27.83
15701;BMP180;7950;42.744;23.174;2022-07-19T12:40:12;94880.13;;;28.04
15701;BMP180;7950;42.744;23.174;2022-07-19T12:42:45;94887.53;;;28.07
15701;BMP180;7950;42.744;23.174;2022-07-19T12:45:18;94878.72;;;28.10
15701;BMP180;7950;42.744;23.174;2022-07-19T12:47:48;94888.03;;;28.13
15701;BMP180;7950;42.744;23.174;2022-07-19T12:50:22;94876.75;;;27.92
15701;BMP180;7950;42.744;23.174;2022-07-19T12:52:54;94877.50;;;28.23
15701;BMP180;7950;42.744;23.174;2022-07-19T12:55:25;94873.59;;;28.21
15701;BMP180;7950;42.744;23.174;2022-07-19T12:57:55;94875.34;;;28.13
15701;BMP180;7950;42.744;23.174;2022-07-19T13:00:28;94875.69;;;27.96
15701;BMP180;7950;42.744;23.174;2022-07-19T13:03:20;94870.84;;;27.74
15701;BMP180;7950;42.744;23.174;2022-07-19T13:05:48;94860.84;;;27.75
15701;BMP180;7950;42.744;23.174;2022-07-19T13:08:17;94862.19;;;27.96
15701;BMP180;7950;42.744;23.174;2022-07-19T13:10:45;94864.13;;;28.11
15701;BMP180;7950;42.744;23.174;2022-07-19T13:13:16;94857.47;;;27.93
15701;BMP180;7950;42.744;23.174;2022-07-19T13:15:47;94859.19;;;27.70
15701;BMP180;7950;42.744;23.174;2022-07-19T13:18:16;94864.41;;;27.63
15701;BMP180;7950;42.744;23.174;2022-07-19T13:21:09;94857.09;;;27.79
15701;BMP180;7950;42.744;23.174;2022-07-19T13:23:38;94858.47;;;28.01
15701;BMP180;7950;42.744;23.174;2022-07-19T13:26:07;94843.97;;;28.24
15701;BMP180;7950;42.744;23.174;2022-07-19T13:28:35;94852.44;;;28.38
15701;BMP180;7950;42.744;23.174;2022-07-19T13:31:08;94844.50;;;28.30
15701;BMP180;7950;42.744;23.174;2022-07-19T13:33:42;94851.38;;;28.27
15701;BMP180;7950;42.744;23.174;2022-07-19T13:36:11;94843.22;;;28.08
15701;BMP180;7950;42.744;23.174;2022-07-19T13:38:39;94844.78;;;28.09
15701;BMP180;7950;42.744;23.174;2022-07-19T13:41:09;94846.53;;;27.86
15701;BMP180;7950;42.744;23.174;2022-07-19T13:43:38;94844.88;;;27.82
15701;BMP180;7950;42.744;23.174;2022-07-19T13:46:08;94840.84;;;27.76
15701;BMP180;7950;42.744;23.174;2022-07-19T13:48:36;94838.56;;;27.62
15701;BMP180;7950;42.744;23.174;2022-07-19T13:51:06;94838.50;;;27.74
15701;BMP180;7950;42.744;23.174;2022-07-19T13:53:36;94844.41;;;27.80
15701;BMP180;7950;42.744;23.174;2022-07-19T13:56:06;94841.16;;;27.86
15701;BMP180;7950;42.744;23.174;2022-07-19T13:58:34;94837.50;;;27.94
15701;BMP180;7950;42.744;23.174;2022-07-19T14:01:03;94836.34;;;27.80
15701;BMP180;7950;42.744;23.174;2022-07-19T14:03:54;94839.75;;;27.92
15701;BMP180;7950;42.744;23.174;2022-07-19T14:06:23;94837.16;;;28.11
15701;BMP180;7950;42.744;23.174;2022-07-19T14:08:54;94834.00;;;28.09
15701;BMP180;7950;42.744;23.174;2022-07-19T14:11:22;94829.22;;;28.03
15701;BMP180;7950;42.744;23.174;2022-07-19T14:13:51;94834.47;;;27.80
15701;BMP180;7950;42.744;23.174;2022-07-19T14:16:20;94834.53;;;27.84
15701;BMP180;7950;42.744;23.174;2022-07-19T14:18:49;94835.50;;;27.91
15701;BMP180;7950;42.744;23.174;2022-07-19T14:21:19;94830.44;;;27.90
15701;BMP180;7950;42.744;23.174;2022-07-19T14:23:48;94828.19;;;27.92
15701;BMP180;7950;42.744;23.174;2022-07-19T14:26:16;94819.03;;;27.96
15701;BMP180;7950;42.744;23.174;2022-07-19T14:28:45;94814.94;;;27.87
15701;BMP180;7950;42.744;23.174;2022-07-19T14:31:14;94826.00;;;27.97
15701;BMP180;7950;42.744;23.174;2022-07-19T14:33:44;94826.00;;;27.97
15701;BMP180;7950;42.744;23.174;2022-07-19T14:36:13;94820.25;;;27.99
15701;BMP180;7950;42.744;23.174;2022-07-19T14:38:43;94820.59;;;27.97